Time,TemperatureF,DewpointF,PressureIn,WindDirection,WindDirectionDegrees,WindSpeedMPH,WindSpeedGustMPH,Humidity,HourlyPrecipIn,Conditions,Clouds,dailyrainin,SolarRadiationWatts/m^2,SoftwareType,DateUTC
2013-09-27 00:12:00,60.0,29.0,-100.00,East,99,8.0,10.0,31,0.00,,,0.00,0.000000,,2013-09-27 07:12:00,
2013-09-27 00:22:00,60.0,29.0,-100.00,East,99,8.0,10.0,31,0.00,,,0.00,0.000000,,2013-09-27 07:22:00,
2013-09-27 00:32:00,60.0,29.0,-100.00,East,99,8.0,10.0,31,0.00,,,0.00,0.000000,,2013-09-27 07:32:00,
2013-09-27 00:43:00,60.0,29.0,-100.00,East,99,8.0,10.0,31,0.00,,,0.00,0.000000,,2013-09-27 07:43:00,
2013-09-27 04:12:00,61.0,25.0,-100.00,East,86,15.0,21.0,25,-99.99,,,0.00,1.000000,,2013-09-27 11:12:00,
2013-09-27 04:22:00,61.0,25.0,-100.00,East,86,15.0,21.0,25,-99.99,,,0.00,1.000000,,2013-09-27 11:22:00,
2013-09-27 04:33:00,61.0,25.0,-100.00,East,86,15.0,21.0,25,-99.99,,,0.00,1.000000,,2013-09-27 11:33:00,
2013-09-27 04:42:00,61.0,25.0,-100.00,East,86,15.0,21.0,25,-99.99,,,0.00,1.000000,,2013-09-27 11:42:00,
2013-09-27 05:12:00,62.0,27.0,-100.00,East,90,19.0,23.0,26,0.00,,,0.00,1.000000,,2013-09-27 12:12:00,
2013-09-27 05:21:00,62.0,27.0,-100.00,East,90,19.0,23.0,26,0.00,,,0.00,1.000000,,2013-09-27 12:21:00,
2013-09-27 05:32:00,62.0,27.0,-100.00,East,90,19.0,23.0,26,0.00,,,0.00,1.000000,,2013-09-27 12:32:00,
2013-09-27 05:42:00,62.0,27.0,-100.00,East,90,19.0,23.0,26,0.00,,,0.00,1.000000,,2013-09-27 12:42:00,
2013-09-27 06:11:00,60.0,27.0,-100.00,East,86,16.0,23.0,28,0.00,,,0.00,1.000000,,2013-09-27 13:11:00,
2013-09-27 06:21:00,60.0,27.0,-100.00,East,86,16.0,23.0,28,0.00,,,0.00,1.000000,,2013-09-27 13:21:00,
2013-09-27 06:32:00,60.0,27.0,-100.00,East,86,16.0,23.0,28,0.00,,,0.00,1.000000,,2013-09-27 13:32:00,
2013-09-27 06:42:00,60.0,27.0,-100.00,East,86,16.0,23.0,28,0.00,,,0.00,1.000000,,2013-09-27 13:42:00,
2013-09-27 07:11:00,61.0,28.0,-100.00,ENE,71,25.0,34.0,28,0.00,,,0.00,1.000000,,2013-09-27 14:11:00,
2013-09-27 07:21:00,61.0,28.0,-100.00,ENE,71,25.0,34.0,28,0.00,,,0.00,1.000000,,2013-09-27 14:21:00,
2013-09-27 07:32:00,61.0,28.0,-100.00,ENE,71,25.0,34.0,28,0.00,,,0.00,1.000000,,2013-09-27 14:32:00,
2013-09-27 07:42:00,61.0,28.0,-100.00,ENE,71,25.0,34.0,28,0.00,,,0.00,1.000000,,2013-09-27 14:42:00,
2013-09-27 08:11:00,62.0,29.0,-100.00,ENE,73,29.0,37.0,28,0.00,,,0.00,68.000000,,2013-09-27 15:11:00,
2013-09-27 08:21:00,62.0,29.0,-100.00,ENE,73,29.0,37.0,28,0.00,,,0.00,68.000000,,2013-09-27 15:21:00,
2013-09-27 08:33:00,62.0,29.0,-100.00,ENE,73,29.0,37.0,28,0.00,,,0.00,68.000000,,2013-09-27 15:33:00,
2013-09-27 08:43:00,62.0,29.0,-100.00,ENE,73,29.0,37.0,28,0.00,,,0.00,68.000000,,2013-09-27 15:43:00,
2013-09-27 09:13:00,64.0,29.0,-100.00,ENE,71,28.0,38.0,27,0.00,,,0.00,279.000000,,2013-09-27 16:13:00,
2013-09-27 09:24:00,64.0,29.0,-100.00,ENE,71,28.0,38.0,27,0.00,,,0.00,279.000000,,2013-09-27 16:24:00,
2013-09-27 09:34:00,64.0,29.0,-100.00,ENE,71,28.0,38.0,27,0.00,,,0.00,279.000000,,2013-09-27 16:34:00,
2013-09-27 09:44:00,64.0,29.0,-100.00,ENE,71,28.0,38.0,27,0.00,,,0.00,279.000000,,2013-09-27 16:44:00,
2013-09-27 10:13:00,67.0,28.0,-100.00,ENE,71,31.0,41.0,23,0.00,,,0.00,479.000000,,2013-09-27 17:13:00,
2013-09-27 10:23:00,67.0,28.0,-100.00,ENE,71,31.0,41.0,23,0.00,,,0.00,479.000000,,2013-09-27 17:23:00,
2013-09-27 10:34:00,67.0,28.0,-100.00,ENE,71,31.0,41.0,23,0.00,,,0.00,479.000000,,2013-09-27 17:34:00,
2013-09-27 10:43:00,67.0,28.0,-100.00,ENE,71,31.0,41.0,23,0.00,,,0.00,479.000000,,2013-09-27 17:43:00,
2013-09-27 11:13:00,69.0,25.0,-100.00,ENE,70,29.0,48.0,19,0.00,,,0.00,648.000000,,2013-09-27 18:13:00,
2013-09-27 11:21:00,69.0,25.0,-100.00,ENE,70,29.0,48.0,19,0.00,,,0.00,648.000000,,2013-09-27 18:21:00,
2013-09-27 11:33:00,69.0,25.0,-100.00,ENE,70,29.0,48.0,19,0.00,,,0.00,648.000000,,2013-09-27 18:33:00,
2013-09-27 11:43:00,69.0,25.0,-100.00,ENE,70,29.0,48.0,19,0.00,,,0.00,648.000000,,2013-09-27 18:43:00,
2013-09-27 12:12:00,72.0,23.0,-100.00,ENE,75,27.0,43.0,16,0.00,,,0.00,769.000000,,2013-09-27 19:12:00,
2013-09-27 12:22:00,72.0,23.0,-100.00,ENE,75,27.0,43.0,16,0.00,,,0.00,769.000000,,2013-09-27 19:22:00,
2013-09-27 12:32:00,72.0,23.0,-100.00,ENE,75,27.0,43.0,16,0.00,,,0.00,769.000000,,2013-09-27 19:32:00,
2013-09-27 12:42:00,72.0,23.0,-100.00,ENE,75,27.0,43.0,16,0.00,,,0.00,769.000000,,2013-09-27 19:42:00,
2013-09-27 13:12:00,73.0,21.0,-100.00,ENE,71,22.0,40.0,14,0.00,,,0.00,832.000000,,2013-09-27 20:12:00,
2013-09-27 13:22:00,73.0,21.0,-100.00,ENE,71,22.0,40.0,14,0.00,,,0.00,832.000000,,2013-09-27 20:22:00,
2013-09-27 13:32:00,73.0,21.0,-100.00,ENE,71,22.0,40.0,14,0.00,,,0.00,832.000000,,2013-09-27 20:32:00,
2013-09-27 13:42:00,73.0,21.0,-100.00,ENE,71,22.0,40.0,14,0.00,,,0.00,832.000000,,2013-09-27 20:42:00,
2013-09-27 14:21:00,74.0,20.0,-100.00,East,82,22.0,36.0,13,0.00,,,0.00,829.000000,,2013-09-27 21:21:00,
2013-09-27 14:33:00,74.0,20.0,-100.00,East,82,22.0,36.0,13,0.00,,,0.00,829.000000,,2013-09-27 21:33:00,
2013-09-27 14:44:00,74.0,20.0,-100.00,East,82,22.0,36.0,13,0.00,,,0.00,829.000000,,2013-09-27 21:44:00,
2013-09-27 15:14:00,76.0,20.0,-100.00,ENE,72,16.0,34.0,12,0.00,,,0.00,757.000000,,2013-09-27 22:14:00,
2013-09-27 15:24:00,76.0,20.0,-100.00,ENE,72,16.0,34.0,12,0.00,,,0.00,757.000000,,2013-09-27 22:24:00,
2013-09-27 15:34:00,76.0,20.0,-100.00,ENE,72,16.0,34.0,12,0.00,,,0.00,757.000000,,2013-09-27 22:34:00,
2013-09-27 15:43:00,76.0,20.0,-100.00,ENE,72,16.0,34.0,12,0.00,,,0.00,757.000000,,2013-09-27 22:43:00,
2013-09-27 16:12:00,77.0,20.0,-100.00,ENE,78,14.0,27.0,12,0.00,,,0.00,630.000000,,2013-09-27 23:12:00,
2013-09-27 16:22:00,77.0,20.0,-100.00,ENE,78,14.0,27.0,12,0.00,,,0.00,630.000000,,2013-09-27 23:22:00,
2013-09-27 16:34:00,77.0,20.0,-100.00,ENE,78,14.0,27.0,12,0.00,,,0.00,630.000000,,2013-09-27 23:34:00,
2013-09-27 16:43:00,77.0,20.0,-100.00,ENE,78,14.0,27.0,12,0.00,,,0.00,630.000000,,2013-09-27 23:43:00,
2013-09-27 17:12:00,77.0,18.0,-100.00,East,96,10.0,20.0,11,0.00,,,0.00,462.000000,,2013-09-28 00:12:00,
2013-09-27 17:22:00,77.0,18.0,-100.00,East,96,10.0,20.0,11,0.00,,,0.00,462.000000,,2013-09-28 00:22:00,
2013-09-27 17:32:00,77.0,18.0,-100.00,East,96,10.0,20.0,11,0.00,,,0.00,462.000000,,2013-09-28 00:32:00,
2013-09-27 17:42:00,77.0,18.0,-100.00,East,96,10.0,20.0,11,0.00,,,0.00,462.000000,,2013-09-28 00:42:00,
2013-09-27 18:12:00,74.0,22.0,-100.00,WSW,243,16.0,27.0,14,0.00,,,0.00,258.000000,,2013-09-28 01:12:00,
2013-09-27 18:21:00,74.0,22.0,-100.00,WSW,243,16.0,27.0,14,0.00,,,0.00,258.000000,,2013-09-28 01:21:00,
2013-09-27 18:32:00,74.0,22.0,-100.00,WSW,243,16.0,27.0,14,0.00,,,0.00,258.000000,,2013-09-28 01:32:00,
2013-09-27 18:42:00,74.0,22.0,-100.00,WSW,243,16.0,27.0,14,0.00,,,0.00,258.000000,,2013-09-28 01:42:00,
2013-09-27 19:12:00,72.0,22.0,-100.00,WSW,252,12.0,20.0,15,0.00,,,0.00,64.000000,,2013-09-28 02:12:00,
2013-09-27 19:22:00,72.0,22.0,-100.00,WSW,252,12.0,20.0,15,0.00,,,0.00,64.000000,,2013-09-28 02:22:00,
2013-09-27 19:32:00,72.0,22.0,-100.00,WSW,252,12.0,20.0,15,0.00,,,0.00,64.000000,,2013-09-28 02:32:00,
2013-09-27 19:42:00,72.0,22.0,-100.00,WSW,252,12.0,20.0,15,0.00,,,0.00,64.000000,,2013-09-28 02:42:00,
2013-09-27 20:12:00,69.0,21.0,-100.00,WSW,258,7.0,13.0,16,0.00,,,0.00,1.000000,,2013-09-28 03:12:00,
2013-09-27 20:22:00,69.0,21.0,-100.00,WSW,258,7.0,13.0,16,0.00,,,0.00,1.000000,,2013-09-28 03:22:00,
2013-09-27 20:34:00,69.0,21.0,-100.00,WSW,258,7.0,13.0,16,0.00,,,0.00,1.000000,,2013-09-28 03:34:00,
2013-09-27 20:45:00,69.0,21.0,-100.00,WSW,258,7.0,13.0,16,0.00,,,0.00,1.000000,,2013-09-28 03:45:00,
2013-09-27 21:13:00,70.0,23.0,-100.00,SSW,192,2.0,9.0,17,0.00,,,0.00,0.000000,,2013-09-28 04:13:00,
2013-09-27 21:25:00,70.0,23.0,-100.00,SSW,192,2.0,9.0,17,0.00,,,0.00,0.000000,,2013-09-28 04:25:00,
2013-09-27 21:34:00,70.0,23.0,-100.00,SSW,192,2.0,9.0,17,0.00,,,0.00,0.000000,,2013-09-28 04:34:00,
2013-09-27 21:43:00,70.0,23.0,-100.00,SSW,192,2.0,9.0,17,0.00,,,0.00,0.000000,,2013-09-28 04:43:00,
2013-09-27 22:13:00,68.0,23.0,-100.00,NW,309,0.0,7.0,18,-99.99,,,0.00,0.000000,,2013-09-28 05:13:00,
2013-09-27 22:22:00,68.0,23.0,-100.00,NW,309,0.0,7.0,18,-99.99,,,0.00,0.000000,,2013-09-28 05:22:00,
2013-09-27 22:34:00,68.0,23.0,-100.00,NW,309,0.0,7.0,18,-99.99,,,0.00,0.000000,,2013-09-28 05:34:00,
2013-09-27 23:13:00,67.0,25.0,-100.00,East,82,12.0,15.0,20,0.00,,,0.00,0.000000,,2013-09-28 06:13:00,
2013-09-27 23:22:00,67.0,25.0,-100.00,East,82,12.0,15.0,20,0.00,,,0.00,0.000000,,2013-09-28 06:22:00,
2013-09-27 23:32:00,67.0,25.0,-100.00,East,82,12.0,15.0,20,0.00,,,0.00,0.000000,,2013-09-28 06:32:00,